Terminal Aerodrome Forecast
Issued by NWS

Current Version | Previous Version | Text Only | Print | Product List | Glossary On
Versions: 1 2 3 4 5 6 7 8 9 10 11 12 13 14 15 16
000
FTUS42 KFFC 030525
TAFPDK
TAF
KPDK 030525Z 0306/0406 18003KT P6SM FEW090 SCT250
     FM031400 32003KT P6SM SCT080
     FM031700 31005KT P6SM SCT050
     FM040200 00000KT P6SM FEW080=

USA.gov is the U.S. government's official web portal to all federal, state and local government web resources and services.